createdAt,value
2023-03-01T00:00:47.630Z,11.35
2023-03-01T00:03:15.422Z,18.38
2023-03-01T00:05:46.558Z,14.45
2023-03-01T00:08:14.561Z,13.45
2023-03-01T00:10:42.231Z,15.40
2023-03-01T00:13:09.874Z,15.77
2023-03-01T00:15:42.466Z,13.25
2023-03-01T00:18:10.913Z,14.85
2023-03-01T00:20:39.047Z,18.95
2023-03-01T00:23:06.962Z,15.70
2023-03-01T00:25:34.622Z,12.70
2023-03-01T00:28:02.278Z,14.68
2023-03-01T00:30:29.973Z,13.80
2023-03-01T00:32:59.365Z,15.70
2023-03-01T00:35:27.094Z,15.20
2023-03-01T00:37:58.794Z,16.85
2023-03-01T00:40:26.517Z,16.52
2023-03-01T00:42:54.154Z,13.77
2023-03-01T00:45:22.077Z,13.95
2023-03-01T00:47:50.569Z,13.15
2023-03-01T00:50:20.662Z,13.55
2023-03-01T00:52:48.630Z,14.68
2023-03-01T00:55:16.717Z,17.67
2023-03-01T00:57:44.443Z,14.10
2023-03-01T01:00:13.353Z,13.83
2023-03-01T01:02:41.134Z,16.80
2023-03-01T01:05:09.642Z,13.55
2023-03-01T01:07:38.897Z,14.13
2023-03-01T01:10:07.543Z,11.65
2023-03-01T01:12:35.310Z,14.40
2023-03-01T01:15:03.177Z,11.77
2023-03-01T01:17:30.848Z,19.05
2023-03-01T01:19:58.560Z,15.40
2023-03-01T01:22:26.220Z,15.95
2023-03-01T01:24:55.317Z,17.40
2023-03-01T01:27:23.146Z,15.45
2023-03-01T01:29:50.851Z,16.17
2023-03-01T01:32:18.737Z,19.23
2023-03-01T01:34:47.616Z,19.15
2023-03-01T01:37:15.301Z,20.55
2023-03-01T01:39:43.108Z,16.88
2023-03-01T01:42:15.222Z,18.98
2023-03-01T01:44:42.852Z,18.38
2023-03-01T01:47:15.497Z,29.30
2023-03-01T01:49:45.408Z,25.10
2023-03-01T01:52:16.440Z,22.35
2023-03-01T01:54:46.949Z,25.07
2023-03-01T01:57:19.859Z,22.35
2023-03-01T01:59:50.464Z,19.42
2023-03-01T02:02:18.322Z,19.23
2023-03-01T02:04:46.073Z,18.15
2023-03-01T02:07:17.406Z,19.20
2023-03-01T02:09:47.772Z,17.98
2023-03-01T02:12:19.128Z,20.70
2023-03-01T02:14:46.848Z,16.45
2023-03-01T02:17:16.261Z,16.63
2023-03-01T02:19:51.567Z,17.35
2023-03-01T02:22:24.447Z,17.10
2023-03-01T02:25:01.433Z,15.43
2023-03-01T02:27:37.636Z,15.70
2023-03-01T02:30:08.880Z,16.42
2023-03-01T02:32:36.279Z,17.45
2023-03-01T02:35:07.508Z,20.60
2023-03-01T02:37:38.083Z,17.23
2023-03-01T02:40:12.547Z,20.58
2023-03-01T02:42:46.185Z,23.58
2023-03-01T02:45:15.456Z,21.48
2023-03-01T02:47:43.143Z,15.60
2023-03-01T02:50:24.797Z,18.77
2023-03-01T02:53:00.895Z,17.98
2023-03-01T02:55:28.914Z,19.65
2023-03-01T02:57:57.524Z,20.60
2023-03-01T03:00:29.517Z,17.23
2023-03-01T03:02:58.128Z,18.35
2023-03-01T03:05:27.745Z,16.73
2023-03-01T03:07:56.396Z,17.67
2023-03-01T03:10:25.972Z,16.95
2023-03-01T03:12:55.017Z,16.75
2023-03-01T03:15:23.213Z,16.00
2023-03-01T03:17:53.712Z,15.27
2023-03-01T03:20:23.555Z,21.20
2023-03-01T03:22:53.540Z,16.90
2023-03-01T03:25:21.847Z,15.48
2023-03-01T03:27:57.638Z,18.60
2023-03-01T03:30:27.714Z,16.90
2023-03-01T03:32:57.924Z,19.77
2023-03-01T03:35:29.815Z,15.18
2023-03-01T03:38:04.411Z,14.93
2023-03-01T03:40:34.307Z,15.43
2023-03-01T03:43:01.988Z,13.82
2023-03-01T03:45:29.708Z,17.38
2023-03-01T03:47:58.746Z,17.52
2023-03-01T03:50:26.525Z,19.33
2023-03-01T03:52:54.352Z,21.95
2023-03-01T03:55:22.203Z,19.27
2023-03-01T03:57:52.594Z,16.73
2023-03-01T04:00:22.800Z,25.88
2023-03-01T04:02:50.828Z,20.98
2023-03-01T04:05:20.954Z,19.13
2023-03-01T04:07:48.578Z,18.47
2023-03-01T04:10:18.571Z,21.05
2023-03-01T04:12:46.467Z,18.77
2023-03-01T04:15:14.790Z,16.63
2023-03-01T04:17:42.972Z,17.98
2023-03-01T04:20:12.490Z,17.25
2023-03-01T04:22:42.564Z,19.48
2023-03-01T04:25:14.983Z,15.25
2023-03-01T04:27:43.115Z,15.85
2023-03-01T04:30:13.045Z,15.88
2023-03-01T04:32:40.718Z,16.10
2023-03-01T04:35:09.268Z,18.05
2023-03-01T04:37:37.367Z,17.17
2023-03-01T04:40:16.959Z,15.65
2023-03-01T04:42:45.253Z,17.75
2023-03-01T04:45:15.138Z,15.27
2023-03-01T04:47:43.703Z,18.67
2023-03-01T04:50:13.427Z,16.35
2023-03-01T04:52:41.102Z,13.90
2023-03-01T04:55:11.389Z,13.52
2023-03-01T04:57:39.518Z,17.77
2023-03-01T05:00:20.939Z,16.10
2023-03-01T05:02:54.180Z,16.02
2023-03-01T05:05:29.797Z,17.38
2023-03-01T05:08:01.128Z,16.27
2023-03-01T05:10:34.484Z,16.23
2023-03-01T05:13:02.137Z,15.85
2023-03-01T05:15:31.118Z,16.08
2023-03-01T05:18:00.941Z,19.77
2023-03-01T05:20:29.707Z,19.67
2023-03-01T05:22:59.611Z,21.50
2023-03-01T05:25:27.945Z,15.43
2023-03-01T05:27:56.960Z,21.73
2023-03-01T05:30:24.648Z,19.20
2023-03-01T05:32:56.637Z,19.23
2023-03-01T05:35:25.044Z,19.92
2023-03-01T05:37:53.286Z,24.20
2023-03-01T05:40:22.584Z,17.88
2023-03-01T05:42:51.823Z,20.23
2023-03-01T05:45:20.904Z,17.70
2023-03-01T05:47:49.958Z,18.92
2023-03-01T05:50:20.644Z,21.97
2023-03-01T05:52:49.509Z,26.05
2023-03-01T05:55:17.889Z,22.30
2023-03-01T05:57:45.700Z,23.33
2023-03-01T06:00:15.298Z,19.63
2023-03-01T06:02:44.457Z,20.90
2023-03-01T06:05:14.067Z,26.80
2023-03-01T06:07:42.534Z,26.13
2023-03-01T06:10:12.857Z,27.40
2023-03-01T06:12:41.784Z,21.77
2023-03-01T06:15:11.374Z,23.20
2023-03-01T06:17:41.555Z,22.33
2023-03-01T06:20:13.206Z,22.98
2023-03-01T06:22:41.516Z,22.40
2023-03-01T06:25:10.455Z,20.60
2023-03-01T06:27:38.307Z,23.65
2023-03-01T06:30:08.042Z,23.58
2023-03-01T06:32:35.717Z,29.85
2023-03-01T06:35:03.383Z,20.42
2023-03-01T06:37:32.542Z,24.10
2023-03-01T06:40:00.219Z,25.95
2023-03-01T06:42:27.924Z,23.25
2023-03-01T06:44:55.551Z,23.55
2023-03-01T06:47:23.175Z,24.20
2023-03-01T06:49:50.866Z,25.55
2023-03-01T06:52:18.726Z,19.13
2023-03-01T06:54:47.751Z,24.27
2023-03-01T06:57:15.382Z,23.10
2023-03-01T06:59:43.092Z,24.63
2023-03-01T07:02:12.408Z,21.85
2023-03-01T07:04:40.090Z,22.07
2023-03-01T07:07:07.723Z,22.08
2023-03-01T07:09:35.397Z,22.93
2023-03-01T07:12:05.172Z,22.92
2023-03-01T07:14:32.908Z,22.77
2023-03-01T07:17:00.667Z,24.25
2023-03-01T07:19:28.364Z,19.33
2023-03-01T07:21:56.811Z,24.70
2023-03-01T07:24:24.688Z,22.95
2023-03-01T07:26:52.433Z,23.47
2023-03-01T07:29:22.096Z,23.77
2023-03-01T07:31:49.783Z,23.88
2023-03-01T07:34:17.453Z,26.65
2023-03-01T07:36:46.358Z,26.42
2023-03-01T07:39:14.064Z,20.45
2023-03-01T07:41:42.130Z,22.88
2023-03-01T07:44:10.277Z,21.35
2023-03-01T07:46:39.308Z,19.33
2023-03-01T07:49:07.174Z,23.88
2023-03-01T07:51:34.942Z,19.13
2023-03-01T07:54:02.562Z,20.25
2023-03-01T07:56:30.800Z,18.05
2023-03-01T07:58:58.563Z,18.17
2023-03-01T08:01:26.302Z,19.25
2023-03-01T08:03:55.565Z,18.70
2023-03-01T08:06:23.176Z,18.20
2023-03-01T08:08:50.936Z,22.87
2023-03-01T08:11:18.595Z,16.23
2023-03-01T08:13:46.257Z,18.30
2023-03-01T08:16:16.171Z,23.13
2023-03-01T08:18:45.675Z,21.88
2023-03-01T08:21:16.777Z,20.33
2023-03-01T08:23:45.184Z,15.98
2023-03-01T08:26:14.506Z,17.20
2023-03-01T08:28:42.742Z,16.10
2023-03-01T08:31:18.089Z,17.50
2023-03-01T08:33:45.818Z,16.13
2023-03-01T08:36:15.002Z,18.27
2023-03-01T08:38:42.662Z,18.70
2023-03-01T08:41:10.377Z,16.67
2023-03-01T08:43:38.043Z,17.30
2023-03-01T08:46:06.066Z,15.32
2023-03-01T08:48:33.772Z,17.88
2023-03-01T08:51:09.732Z,18.55
2023-03-01T08:53:39.031Z,18.80
2023-03-01T08:56:07.050Z,18.20
2023-03-01T08:58:35.091Z,17.63
2023-03-01T09:01:02.874Z,18.45
2023-03-01T09:03:31.079Z,20.38
2023-03-01T09:06:03.196Z,17.42
2023-03-01T09:08:31.093Z,21.25
2023-03-01T09:11:00.140Z,16.77
2023-03-01T09:13:32.100Z,18.35
2023-03-01T09:15:59.843Z,18.58
2023-03-01T09:18:27.599Z,16.83
2023-03-01T09:20:57.021Z,20.38
2023-03-01T09:23:24.670Z,23.17
2023-03-01T09:25:52.471Z,20.27
2023-03-01T09:28:29.630Z,18.23
2023-03-01T09:31:00.402Z,15.55
2023-03-01T09:33:28.420Z,18.08
2023-03-01T09:35:59.000Z,17.55
2023-03-01T09:38:27.088Z,15.43
2023-03-01T09:40:55.173Z,16.38
2023-03-01T09:43:28.579Z,15.52
2023-03-01T09:45:57.341Z,13.90
2023-03-01T09:48:28.293Z,16.90
2023-03-01T09:50:56.025Z,13.70
2023-03-01T09:53:27.099Z,20.02
2023-03-01T09:55:58.133Z,18.08
2023-03-01T09:58:36.207Z,14.93
2023-03-01T10:01:13.019Z,17.00
2023-03-01T10:03:44.592Z,17.52
2023-03-01T10:06:32.213Z,15.65
2023-03-01T10:09:04.771Z,15.60
2023-03-01T10:11:34.029Z,16.73
2023-03-01T10:14:05.510Z,14.43
2023-03-01T10:16:41.237Z,17.33
2023-03-01T10:19:13.965Z,18.20
2023-03-01T10:21:46.526Z,13.43
2023-03-01T10:24:15.911Z,15.93
2023-03-01T10:26:55.197Z,13.90
2023-03-01T10:29:26.799Z,19.27
2023-03-01T10:31:55.674Z,17.02
2023-03-01T10:34:29.985Z,14.88
2023-03-01T10:37:00.125Z,13.93
2023-03-01T10:39:28.210Z,15.07
2023-03-01T10:42:01.124Z,17.63
2023-03-01T10:44:42.947Z,16.25
2023-03-01T10:47:16.865Z,14.02
2023-03-01T10:49:55.621Z,13.18
2023-03-01T10:52:25.376Z,13.48
2023-03-01T10:54:55.330Z,15.43
2023-03-01T10:57:42.061Z,11.38
2023-03-01T11:00:23.408Z,16.48
2023-03-01T11:02:53.393Z,13.85
2023-03-01T11:05:25.460Z,12.98
2023-03-01T11:07:54.904Z,13.70
2023-03-01T11:10:24.993Z,16.13
2023-03-01T11:12:54.230Z,13.52
2023-03-01T11:15:27.059Z,17.77
2023-03-01T11:18:03.133Z,12.77
2023-03-01T11:20:38.193Z,14.35
2023-03-01T11:23:10.538Z,15.70
2023-03-01T11:25:41.118Z,16.02
2023-03-01T11:28:12.368Z,14.93
2023-03-01T11:30:49.043Z,15.30
2023-03-01T11:33:34.926Z,14.30
2023-03-01T11:36:05.566Z,13.02
2023-03-01T11:38:37.007Z,14.68
2023-03-01T11:41:08.959Z,14.57
2023-03-01T11:43:40.779Z,14.77
2023-03-01T11:46:35.925Z,14.18
2023-03-01T11:49:14.273Z,13.55
2023-03-01T11:51:50.259Z,14.10
2023-03-01T11:54:31.219Z,13.63
2023-03-01T11:57:02.746Z,12.25
2023-03-01T11:59:44.948Z,13.10
2023-03-01T12:02:28.108Z,12.02
2023-03-01T12:05:19.552Z,12.77
2023-03-01T12:07:51.572Z,12.05
2023-03-01T12:10:24.487Z,13.20
2023-03-01T12:13:12.575Z,11.80
2023-03-01T12:15:47.572Z,13.55
2023-03-01T12:18:34.009Z,10.95
2023-03-01T12:21:09.237Z,12.43
2023-03-01T12:24:09.793Z,12.70
2023-03-01T12:29:24.372Z,12.87
2023-03-01T12:32:12.182Z,12.93
2023-03-01T12:34:52.485Z,12.20
2023-03-01T12:37:38.474Z,10.90
2023-03-01T12:40:19.532Z,11.48
2023-03-01T12:42:58.478Z,10.50
2023-03-01T12:45:35.101Z,11.70
2023-03-01T12:48:13.940Z,11.05
2023-03-01T12:50:45.193Z,10.50
2023-03-01T12:53:23.885Z,8.27
2023-03-01T12:55:53.136Z,9.37
2023-03-01T12:58:29.882Z,9.13
2023-03-01T13:01:18.414Z,10.35
2023-03-01T13:04:01.969Z,8.88
2023-03-01T13:06:43.260Z,12.95
2023-03-01T13:09:17.616Z,7.87
2023-03-01T13:11:45.634Z,8.80
2023-03-01T13:14:38.720Z,9.35
2023-03-01T13:17:06.573Z,10.63
2023-03-01T13:19:36.850Z,10.60
2023-03-01T13:22:29.000Z,9.68
2023-03-01T13:25:04.659Z,7.88
2023-03-01T13:27:33.480Z,8.17
2023-03-01T13:30:06.532Z,9.23
2023-03-01T13:32:44.148Z,7.05
2023-03-01T13:35:42.536Z,10.30
2023-03-01T13:38:46.805Z,8.50
2023-03-01T13:41:15.898Z,8.57
2023-03-01T13:43:45.189Z,9.00
2023-03-01T13:46:19.120Z,8.80
2023-03-01T13:48:51.315Z,11.25
2023-03-01T13:51:23.962Z,9.20
2023-03-01T13:53:54.071Z,10.68
2023-03-01T13:56:24.272Z,9.48
2023-03-01T13:58:54.920Z,9.13
2023-03-01T14:01:26.470Z,12.00
2023-03-01T14:03:55.070Z,9.80
2023-03-01T14:06:24.524Z,8.93
2023-03-01T14:09:05.176Z,11.18
2023-03-01T14:12:00.719Z,9.60
2023-03-01T14:14:36.942Z,8.57
2023-03-01T14:17:16.701Z,9.17
2023-03-01T14:19:45.909Z,10.50
2023-03-01T14:22:20.348Z,8.85
2023-03-01T14:24:51.846Z,7.90
2023-03-01T14:27:20.371Z,6.25
2023-03-01T14:29:56.835Z,7.35
2023-03-01T14:32:27.737Z,7.57
2023-03-01T14:34:55.774Z,8.68
2023-03-01T14:37:25.243Z,7.30
2023-03-01T14:39:55.322Z,9.35
2023-03-01T14:42:24.242Z,6.53
2023-03-01T14:44:53.448Z,7.03
2023-03-01T14:47:28.214Z,7.82
2023-03-01T14:49:59.823Z,8.00
2023-03-01T14:52:35.795Z,7.05
2023-03-01T14:55:06.759Z,7.90
2023-03-01T14:57:34.437Z,8.25
2023-03-01T15:00:05.782Z,6.22
2023-03-01T15:02:34.381Z,8.65
2023-03-01T15:05:07.177Z,6.43
2023-03-01T15:07:41.168Z,8.27
2023-03-01T15:10:20.441Z,6.30
2023-03-01T15:12:48.242Z,5.23
2023-03-01T15:15:29.469Z,8.02
2023-03-01T15:17:58.459Z,5.40
2023-03-01T15:20:30.262Z,7.17
2023-03-01T15:22:58.708Z,6.32
2023-03-01T15:25:29.426Z,9.65
2023-03-01T15:27:59.229Z,6.70
2023-03-01T15:30:28.497Z,7.68
2023-03-01T15:33:20.433Z,7.22
2023-03-01T15:35:50.478Z,6.97
2023-03-01T15:38:31.382Z,6.88
2023-03-01T15:41:01.783Z,6.35
2023-03-01T15:43:41.417Z,8.05
2023-03-01T15:46:20.258Z,6.55
2023-03-01T15:48:50.367Z,7.88
2023-03-01T15:51:18.326Z,6.30
2023-03-01T15:53:54.501Z,6.93
2023-03-01T15:56:24.197Z,13.07
2023-03-01T15:58:51.849Z,9.67
2023-03-01T16:01:19.758Z,7.43
2023-03-01T16:03:47.745Z,8.57
2023-03-01T16:06:15.757Z,9.50
2023-03-01T16:08:43.844Z,6.65
2023-03-01T16:11:16.776Z,6.70
2023-03-01T16:13:46.291Z,8.40
2023-03-01T16:16:17.295Z,6.63
2023-03-01T16:18:47.052Z,8.45
2023-03-01T16:21:17.704Z,5.82
2023-03-01T16:23:46.523Z,9.73
2023-03-01T16:26:14.677Z,9.57
2023-03-01T16:28:42.597Z,8.18
2023-03-01T16:31:12.480Z,6.97
2023-03-01T16:33:40.497Z,7.18
2023-03-01T16:36:09.999Z,8.63
2023-03-01T16:38:37.974Z,6.70
2023-03-01T16:41:05.856Z,6.82
2023-03-01T16:43:34.041Z,7.43
2023-03-01T16:46:01.697Z,6.38
2023-03-01T16:48:30.803Z,8.63
2023-03-01T16:51:01.385Z,7.28
2023-03-01T16:53:30.164Z,8.77
2023-03-01T16:55:58.383Z,8.05
2023-03-01T16:58:26.720Z,7.93
2023-03-01T17:00:55.564Z,6.78
2023-03-01T17:03:23.348Z,8.88
2023-03-01T17:05:52.970Z,8.10
2023-03-01T17:08:20.609Z,8.73
2023-03-01T17:10:48.917Z,7.60
2023-03-01T17:13:16.972Z,7.73
2023-03-01T17:15:44.712Z,6.73
2023-03-01T17:18:12.360Z,6.90
2023-03-01T17:20:40.255Z,7.97
2023-03-01T17:23:09.432Z,6.00
2023-03-01T17:25:37.435Z,6.75
2023-03-01T17:28:05.248Z,8.15
2023-03-01T17:30:33.010Z,9.27
2023-03-01T17:33:00.761Z,9.15
2023-03-01T17:35:28.480Z,12.27
2023-03-01T17:37:56.133Z,8.00
2023-03-01T17:40:25.134Z,7.53
2023-03-01T17:42:52.784Z,9.48
2023-03-01T17:45:20.526Z,6.80
2023-03-01T17:47:48.189Z,7.68
2023-03-01T17:50:15.905Z,7.72
2023-03-01T17:52:43.545Z,9.15
2023-03-01T17:55:11.770Z,9.07
2023-03-01T17:57:41.843Z,10.20
2023-03-01T18:00:12.065Z,9.85
2023-03-01T18:02:39.777Z,10.18
2023-03-01T18:05:08.806Z,13.10
2023-03-01T18:07:36.952Z,9.77
2023-03-01T18:10:05.456Z,9.93
2023-03-01T18:12:33.511Z,10.13
2023-03-01T18:15:02.534Z,10.68
2023-03-01T18:17:30.206Z,11.97
2023-03-01T18:19:58.899Z,9.30
2023-03-01T18:22:26.857Z,11.53
2023-03-01T18:24:54.528Z,9.73
2023-03-01T18:27:22.162Z,9.82
2023-03-01T18:29:49.886Z,7.80
2023-03-01T18:32:19.001Z,9.02
2023-03-01T18:34:46.848Z,10.68
2023-03-01T18:37:14.457Z,8.27
2023-03-01T18:39:42.252Z,10.57
2023-03-01T18:42:09.983Z,11.57
2023-03-01T18:44:38.451Z,9.73
2023-03-01T18:47:06.218Z,9.53
2023-03-01T18:49:35.264Z,9.90
2023-03-01T18:52:02.916Z,7.90
2023-03-01T18:54:30.627Z,7.27
2023-03-01T18:56:58.258Z,10.32
2023-03-01T18:59:25.918Z,7.27
2023-03-01T19:01:53.722Z,10.30
2023-03-01T19:04:21.385Z,12.50
2023-03-01T19:06:50.420Z,6.13
2023-03-01T19:09:19.506Z,9.00
2023-03-01T19:11:47.246Z,9.75
2023-03-01T19:14:14.972Z,7.83
2023-03-01T19:16:42.835Z,8.50
2023-03-01T19:19:11.361Z,8.07
2023-03-01T19:21:39.433Z,11.18
2023-03-01T19:24:08.754Z,9.07
2023-03-01T19:26:36.623Z,8.07
2023-03-01T19:29:04.979Z,8.88
2023-03-01T19:31:33.291Z,9.57
2023-03-01T19:34:11.809Z,7.97
2023-03-01T19:36:41.871Z,9.05
2023-03-01T19:39:13.447Z,8.95
2023-03-01T19:41:41.419Z,8.48
2023-03-01T19:44:09.312Z,10.95
2023-03-01T19:46:37.138Z,8.73
2023-03-01T19:49:05.533Z,11.05
2023-03-01T19:51:36.379Z,7.53
2023-03-01T19:54:04.483Z,9.48
2023-03-01T19:56:34.851Z,12.90
2023-03-01T19:59:04.470Z,10.98
2023-03-01T20:01:34.224Z,9.38
2023-03-01T20:04:02.595Z,8.63
2023-03-01T20:06:30.931Z,11.02
2023-03-01T20:09:02.358Z,16.08
2023-03-01T20:11:35.617Z,10.05
2023-03-01T20:14:06.659Z,12.65
2023-03-01T20:16:34.688Z,9.43
2023-03-01T20:19:02.724Z,9.68
2023-03-01T20:21:30.370Z,10.20
2023-03-01T20:23:58.188Z,16.52
2023-03-01T20:26:26.636Z,13.48
2023-03-01T20:28:58.017Z,12.50
2023-03-01T20:31:29.517Z,14.98
2023-03-01T20:33:58.590Z,16.55
2023-03-01T20:36:26.594Z,12.65
2023-03-01T20:38:54.850Z,14.77
2023-03-01T20:41:25.895Z,12.63
2023-03-01T20:43:56.888Z,11.13
2023-03-01T20:46:26.672Z,13.10
2023-03-01T20:48:54.814Z,11.30
2023-03-01T20:51:22.616Z,11.68
2023-03-01T20:53:50.459Z,9.00
2023-03-01T20:56:19.001Z,11.50
2023-03-01T20:58:47.203Z,12.52
2023-03-01T21:01:18.719Z,9.38
2023-03-01T21:03:46.520Z,12.13
2023-03-01T21:06:14.632Z,12.70
2023-03-01T21:08:42.314Z,10.70
2023-03-01T21:11:10.352Z,9.20
2023-03-01T21:13:38.080Z,13.75
2023-03-01T21:16:07.888Z,11.75
2023-03-01T21:18:37.858Z,12.27
2023-03-01T21:21:07.538Z,11.77
2023-03-01T21:23:36.520Z,10.00
2023-03-01T21:26:05.842Z,11.88
2023-03-01T21:28:34.733Z,13.98
2023-03-01T21:31:07.151Z,10.90
2023-03-01T21:33:35.181Z,9.50
2023-03-01T21:36:06.264Z,8.82
2023-03-01T21:38:36.421Z,9.70
2023-03-01T21:41:06.303Z,11.60
2023-03-01T21:43:34.101Z,11.43
2023-03-01T21:46:03.649Z,11.45
2023-03-01T21:48:32.069Z,10.55
2023-03-01T21:51:01.201Z,8.93
2023-03-01T21:53:33.276Z,16.35
2023-03-01T21:56:01.985Z,13.13
2023-03-01T21:58:31.506Z,11.27
2023-03-01T22:01:00.275Z,12.80
2023-03-01T22:03:28.001Z,10.15
2023-03-01T22:05:56.381Z,14.05
2023-03-01T22:08:24.108Z,13.63
2023-03-01T22:10:53.272Z,10.30
2023-03-01T22:13:21.674Z,12.18
2023-03-01T22:15:49.459Z,13.15
2023-03-01T22:18:17.857Z,11.70
2023-03-01T22:20:45.546Z,12.20
2023-03-01T22:23:13.234Z,16.05
2023-03-01T22:25:44.018Z,13.10
2023-03-01T22:28:13.209Z,11.13
2023-03-01T22:30:40.923Z,13.37
2023-03-01T22:33:08.583Z,13.20
2023-03-01T22:35:36.383Z,11.97
2023-03-01T22:38:04.127Z,11.02
2023-03-01T22:40:31.840Z,15.73
2023-03-01T22:42:59.632Z,13.30
2023-03-01T22:45:32.405Z,15.52
2023-03-01T22:48:00.872Z,13.15
2023-03-01T22:50:30.460Z,13.82
2023-03-01T22:52:58.164Z,11.50
2023-03-01T22:55:25.881Z,14.68
2023-03-01T22:57:53.504Z,10.47
2023-03-01T23:00:21.677Z,12.70
2023-03-01T23:02:50.853Z,11.35
2023-03-01T23:05:18.757Z,13.43
2023-03-01T23:07:50.130Z,13.93
2023-03-01T23:10:17.846Z,13.00
2023-03-01T23:12:45.775Z,12.73
2023-03-01T23:15:13.736Z,11.93
2023-03-01T23:17:41.609Z,12.48
2023-03-01T23:20:14.649Z,11.05
2023-03-01T23:22:42.681Z,12.15
2023-03-01T23:25:13.241Z,10.88
2023-03-01T23:27:40.916Z,14.50
2023-03-01T23:30:10.306Z,12.63
2023-03-01T23:32:40.531Z,16.70
2023-03-01T23:35:10.845Z,13.80
2023-03-01T23:37:39.140Z,12.88
2023-03-01T23:40:08.134Z,11.27
2023-03-01T23:42:35.800Z,12.77
2023-03-01T23:45:03.536Z,13.07
2023-03-01T23:47:31.187Z,11.60
2023-03-01T23:49:59.176Z,11.70
2023-03-01T23:52:28.187Z,17.15
2023-03-01T23:54:56.285Z,14.85
2023-03-01T23:57:24.054Z,13.75
2023-03-01T23:59:51.854Z,14.25
